sensor_id;sensor_type;location;lat;lon;timestamp;P1;durP1;ratioP1;P2;durP2;ratioP2
63699;SDS011;49845;47.130;142.766;2023-10-08T00:01:10;5.85;;;2.38;;
63699;SDS011;49845;47.130;142.766;2023-10-08T00:03:42;5.22;;;1.75;;
63699;SDS011;49845;47.130;142.766;2023-10-08T00:06:17;6.47;;;2.13;;
63699;SDS011;49845;47.130;142.766;2023-10-08T00:08:49;3.45;;;2.05;;
63699;SDS011;49845;47.130;142.766;2023-10-08T00:11:29;5.28;;;2.08;;
63699;SDS011;49845;47.130;142.766;2023-10-08T00:13:59;5.25;;;2.20;;
63699;SDS011;49845;47.130;142.766;2023-10-08T00:16:32;3.97;;;1.77;;
63699;SDS011;49845;47.130;142.766;2023-10-08T00:19:06;3.60;;;1.75;;
63699;SDS011;49845;47.130;142.766;2023-10-08T00:21:40;3.22;;;1.95;;
63699;SDS011;49845;47.130;142.766;2023-10-08T00:24:12;4.60;;;1.65;;
63699;SDS011;49845;47.130;142.766;2023-10-08T00:26:45;2.58;;;1.50;;
63699;SDS011;49845;47.130;142.766;2023-10-08T00:29:16;4.10;;;1.60;;
63699;SDS011;49845;47.130;142.766;2023-10-08T00:31:49;1.83;;;1.23;;
63699;SDS011;49845;47.130;142.766;2023-10-08T00:34:19;2.63;;;1.40;;
63699;SDS011;49845;47.130;142.766;2023-10-08T00:36:50;2.90;;;1.45;;
63699;SDS011;49845;47.130;142.766;2023-10-08T00:39:21;5.07;;;1.92;;
63699;SDS011;49845;47.130;142.766;2023-10-08T00:42:03;3.45;;;1.80;;
63699;SDS011;49845;47.130;142.766;2023-10-08T00:44:35;2.28;;;1.20;;
63699;SDS011;49845;47.130;142.766;2023-10-08T00:47:16;1.48;;;1.00;;
63699;SDS011;49845;47.130;142.766;2023-10-08T00:49:51;1.92;;;0.95;;
63699;SDS011;49845;47.130;142.766;2023-10-08T00:52:34;6.13;;;1.90;;
63699;SDS011;49845;47.130;142.766;2023-10-08T00:55:11;6.90;;;1.83;;
63699;SDS011;49845;47.130;142.766;2023-10-08T00:57:58;6.25;;;1.48;;
63699;SDS011;49845;47.130;142.766;2023-10-08T01:00:36;5.35;;;1.60;;
63699;SDS011;49845;47.130;142.766;2023-10-08T01:03:08;4.13;;;2.10;;
63699;SDS011;49845;47.130;142.766;2023-10-08T01:05:44;6.03;;;1.90;;
63699;SDS011;49845;47.130;142.766;2023-10-08T01:08:16;8.50;;;2.40;;
63699;SDS011;49845;47.130;142.766;2023-10-08T01:11:18;4.03;;;1.60;;
63699;SDS011;49845;47.130;142.766;2023-10-08T01:13:55;4.05;;;1.80;;
63699;SDS011;49845;47.130;142.766;2023-10-08T01:16:26;2.72;;;1.55;;
63699;SDS011;49845;47.130;142.766;2023-10-08T01:19:00;2.25;;;1.52;;
63699;SDS011;49845;47.130;142.766;2023-10-08T01:21:32;4.10;;;1.75;;
63699;SDS011;49845;47.130;142.766;2023-10-08T01:24:08;8.40;;;1.92;;
63699;SDS011;49845;47.130;142.766;2023-10-08T01:26:44;5.93;;;2.43;;
63699;SDS011;49845;47.130;142.766;2023-10-08T01:29:14;3.33;;;1.85;;
63699;SDS011;49845;47.130;142.766;2023-10-08T01:31:48;5.53;;;1.83;;
63699;SDS011;49845;47.130;142.766;2023-10-08T01:34:20;3.20;;;1.88;;
63699;SDS011;49845;47.130;142.766;2023-10-08T01:36:55;8.20;;;2.20;;
63699;SDS011;49845;47.130;142.766;2023-10-08T01:39:34;3.07;;;1.97;;
63699;SDS011;49845;47.130;142.766;2023-10-08T01:42:07;3.90;;;2.00;;
63699;SDS011;49845;47.130;142.766;2023-10-08T01:44:44;6.73;;;2.50;;
63699;SDS011;49845;47.130;142.766;2023-10-08T01:47:16;5.17;;;2.10;;
63699;SDS011;49845;47.130;142.766;2023-10-08T01:49:47;7.10;;;2.80;;
63699;SDS011;49845;47.130;142.766;2023-10-08T01:52:17;6.63;;;2.30;;
63699;SDS011;49845;47.130;142.766;2023-10-08T01:54:51;4.10;;;1.97;;
63699;SDS011;49845;47.130;142.766;2023-10-08T01:57:22;5.73;;;2.00;;
63699;SDS011;49845;47.130;142.766;2023-10-08T01:59:53;6.80;;;2.83;;
63699;SDS011;49845;47.130;142.766;2023-10-08T02:02:23;3.87;;;1.90;;
63699;SDS011;49845;47.130;142.766;2023-10-08T02:04:54;5.30;;;3.10;;
63699;SDS011;49845;47.130;142.766;2023-10-08T02:07:24;6.40;;;2.80;;
63699;SDS011;49845;47.130;142.766;2023-10-08T02:09:58;3.03;;;1.70;;
63699;SDS011;49845;47.130;142.766;2023-10-08T02:12:28;3.20;;;1.63;;
63699;SDS011;49845;47.130;142.766;2023-10-08T02:14:58;5.30;;;1.83;;
63699;SDS011;49845;47.130;142.766;2023-10-08T02:17:30;5.07;;;2.07;;
63699;SDS011;49845;47.130;142.766;2023-10-08T02:20:01;7.17;;;2.03;;
63699;SDS011;49845;47.130;142.766;2023-10-08T02:22:33;2.93;;;1.60;;
63699;SDS011;49845;47.130;142.766;2023-10-08T02:25:05;4.47;;;1.80;;
63699;SDS011;49845;47.130;142.766;2023-10-08T02:27:39;5.53;;;2.10;;
63699;SDS011;49845;47.130;142.766;2023-10-08T02:30:10;3.37;;;1.70;;
63699;SDS011;49845;47.130;142.766;2023-10-08T02:32:41;8.23;;;2.10;;
63699;SDS011;49845;47.130;142.766;2023-10-08T02:35:11;4.00;;;2.07;;
63699;SDS011;49845;47.130;142.766;2023-10-08T02:37:42;4.83;;;1.83;;
63699;SDS011;49845;47.130;142.766;2023-10-08T02:40:15;7.77;;;2.60;;
63699;SDS011;49845;47.130;142.766;2023-10-08T02:42:47;5.00;;;2.23;;
63699;SDS011;49845;47.130;142.766;2023-10-08T02:45:18;8.37;;;1.70;;
63699;SDS011;49845;47.130;142.766;2023-10-08T02:47:49;6.00;;;2.20;;
63699;SDS011;49845;47.130;142.766;2023-10-08T02:50:20;5.93;;;1.93;;
63699;SDS011;49845;47.130;142.766;2023-10-08T02:52:51;3.77;;;2.33;;
63699;SDS011;49845;47.130;142.766;2023-10-08T02:55:23;5.13;;;1.97;;
63699;SDS011;49845;47.130;142.766;2023-10-08T02:58:01;6.37;;;2.13;;
63699;SDS011;49845;47.130;142.766;2023-10-08T03:00:32;3.17;;;1.70;;
63699;SDS011;49845;47.130;142.766;2023-10-08T03:03:03;3.97;;;1.67;;
63699;SDS011;49845;47.130;142.766;2023-10-08T03:05:44;3.37;;;1.80;;
63699;SDS011;49845;47.130;142.766;2023-10-08T03:08:15;3.73;;;1.60;;
63699;SDS011;49845;47.130;142.766;2023-10-08T03:10:50;3.23;;;1.80;;
63699;SDS011;49845;47.130;142.766;2023-10-08T03:13:23;4.30;;;1.93;;
63699;SDS011;49845;47.130;142.766;2023-10-08T03:15:54;7.83;;;2.73;;
63699;SDS011;49845;47.130;142.766;2023-10-08T03:18:36;4.47;;;2.40;;
63699;SDS011;49845;47.130;142.766;2023-10-08T03:21:10;3.20;;;1.87;;
63699;SDS011;49845;47.130;142.766;2023-10-08T03:24:10;3.67;;;1.90;;
63699;SDS011;49845;47.130;142.766;2023-10-08T03:26:59;4.30;;;1.60;;
63699;SDS011;49845;47.130;142.766;2023-10-08T03:29:35;4.93;;;2.00;;
63699;SDS011;49845;47.130;142.766;2023-10-08T03:32:09;5.27;;;2.30;;
63699;SDS011;49845;47.130;142.766;2023-10-08T03:34:45;5.17;;;1.90;;
63699;SDS011;49845;47.130;142.766;2023-10-08T03:37:17;5.00;;;1.50;;
63699;SDS011;49845;47.130;142.766;2023-10-08T03:39:56;5.40;;;1.90;;
63699;SDS011;49845;47.130;142.766;2023-10-08T03:42:37;5.25;;;1.75;;
63699;SDS011;49845;47.130;142.766;2023-10-08T03:45:09;3.30;;;1.80;;
63699;SDS011;49845;47.130;142.766;2023-10-08T03:47:44;2.67;;;1.57;;
63699;SDS011;49845;47.130;142.766;2023-10-08T03:50:24;7.40;;;2.10;;
63699;SDS011;49845;47.130;142.766;2023-10-08T03:53:00;4.50;;;2.13;;
63699;SDS011;49845;47.130;142.766;2023-10-08T03:55:31;4.03;;;2.07;;
63699;SDS011;49845;47.130;142.766;2023-10-08T03:58:04;2.90;;;1.60;;
63699;SDS011;49845;47.130;142.766;2023-10-08T04:00:39;7.77;;;1.77;;
63699;SDS011;49845;47.130;142.766;2023-10-08T04:03:13;5.47;;;2.10;;
63699;SDS011;49845;47.130;142.766;2023-10-08T04:05:51;4.27;;;2.00;;
63699;SDS011;49845;47.130;142.766;2023-10-08T04:08:34;6.10;;;1.67;;
63699;SDS011;49845;47.130;142.766;2023-10-08T04:11:26;4.37;;;1.70;;
63699;SDS011;49845;47.130;142.766;2023-10-08T04:14:01;5.07;;;2.30;;
63699;SDS011;49845;47.130;142.766;2023-10-08T04:16:32;4.23;;;1.73;;
63699;SDS011;49845;47.130;142.766;2023-10-08T04:19:04;4.47;;;2.00;;
63699;SDS011;49845;47.130;142.766;2023-10-08T04:21:35;2.70;;;1.50;;
63699;SDS011;49845;47.130;142.766;2023-10-08T04:24:07;16.43;;;2.60;;
63699;SDS011;49845;47.130;142.766;2023-10-08T04:26:38;4.33;;;1.73;;
63699;SDS011;49845;47.130;142.766;2023-10-08T04:29:10;3.57;;;1.70;;
63699;SDS011;49845;47.130;142.766;2023-10-08T04:31:44;3.53;;;1.87;;
63699;SDS011;49845;47.130;142.766;2023-10-08T04:34:21;3.37;;;1.50;;
63699;SDS011;49845;47.130;142.766;2023-10-08T04:36:54;5.87;;;1.60;;
63699;SDS011;49845;47.130;142.766;2023-10-08T04:39:28;4.40;;;1.70;;
63699;SDS011;49845;47.130;142.766;2023-10-08T04:42:01;4.17;;;1.70;;
63699;SDS011;49845;47.130;142.766;2023-10-08T04:44:36;5.67;;;2.20;;
63699;SDS011;49845;47.130;142.766;2023-10-08T04:47:08;2.80;;;1.60;;
63699;SDS011;49845;47.130;142.766;2023-10-08T04:49:59;4.07;;;2.10;;
63699;SDS011;49845;47.130;142.766;2023-10-08T04:52:32;4.07;;;1.60;;
63699;SDS011;49845;47.130;142.766;2023-10-08T04:55:13;5.03;;;2.20;;
63699;SDS011;49845;47.130;142.766;2023-10-08T04:57:48;3.10;;;1.83;;
63699;SDS011;49845;47.130;142.766;2023-10-08T05:00:22;7.87;;;2.70;;
63699;SDS011;49845;47.130;142.766;2023-10-08T05:03:08;5.43;;;1.92;;
63699;SDS011;49845;47.130;142.766;2023-10-08T05:05:44;3.43;;;1.73;;
63699;SDS011;49845;47.130;142.766;2023-10-08T05:08:35;4.83;;;2.33;;
63699;SDS011;49845;47.130;142.766;2023-10-08T05:11:15;5.03;;;2.47;;
63699;SDS011;49845;47.130;142.766;2023-10-08T05:14:15;4.60;;;1.97;;
63699;SDS011;49845;47.130;142.766;2023-10-08T05:16:58;11.83;;;1.80;;
63699;SDS011;49845;47.130;142.766;2023-10-08T05:19:30;3.73;;;1.80;;
63699;SDS011;49845;47.130;142.766;2023-10-08T05:22:24;8.80;;;2.20;;
63699;SDS011;49845;47.130;142.766;2023-10-08T05:25:07;5.00;;;1.63;;
63699;SDS011;49845;47.130;142.766;2023-10-08T05:27:52;4.43;;;2.03;;
63699;SDS011;49845;47.130;142.766;2023-10-08T05:30:26;5.70;;;2.13;;
63699;SDS011;49845;47.130;142.766;2023-10-08T05:33:07;6.53;;;2.10;;
63699;SDS011;49845;47.130;142.766;2023-10-08T05:35:53;3.73;;;1.77;;
63699;SDS011;49845;47.130;142.766;2023-10-08T05:38:37;3.00;;;1.77;;
63699;SDS011;49845;47.130;142.766;2023-10-08T05:41:16;6.05;;;2.30;;
63699;SDS011;49845;47.130;142.766;2023-10-08T05:44:00;5.23;;;2.30;;
63699;SDS011;49845;47.130;142.766;2023-10-08T05:46:47;3.97;;;2.43;;
63699;SDS011;49845;47.130;142.766;2023-10-08T05:49:35;5.53;;;2.50;;
63699;SDS011;49845;47.130;142.766;2023-10-08T05:52:21;8.70;;;2.40;;
63699;SDS011;49845;47.130;142.766;2023-10-08T05:55:08;4.60;;;2.33;;
63699;SDS011;49845;47.130;142.766;2023-10-08T05:57:53;4.10;;;2.27;;
63699;SDS011;49845;47.130;142.766;2023-10-08T06:00:41;3.03;;;2.20;;
63699;SDS011;49845;47.130;142.766;2023-10-08T06:03:14;4.37;;;2.33;;
63699;SDS011;49845;47.130;142.766;2023-10-08T06:06:16;6.67;;;2.10;;
63699;SDS011;49845;47.130;142.766;2023-10-08T06:09:04;5.47;;;2.30;;
63699;SDS011;49845;47.130;142.766;2023-10-08T06:12:02;4.78;;;2.15;;
63699;SDS011;49845;47.130;142.766;2023-10-08T06:14:38;4.27;;;2.40;;
63699;SDS011;49845;47.130;142.766;2023-10-08T06:17:35;4.03;;;2.60;;
63699;SDS011;49845;47.130;142.766;2023-10-08T06:20:25;11.90;;;2.80;;
63699;SDS011;49845;47.130;142.766;2023-10-08T06:22:59;7.37;;;3.00;;
63699;SDS011;49845;47.130;142.766;2023-10-08T06:25:34;6.23;;;3.53;;
63699;SDS011;49845;47.130;142.766;2023-10-08T06:28:15;6.50;;;3.90;;
63699;SDS011;49845;47.130;142.766;2023-10-08T06:30:48;6.45;;;3.33;;
63699;SDS011;49845;47.130;142.766;2023-10-08T06:33:21;5.28;;;2.72;;
63699;SDS011;49845;47.130;142.766;2023-10-08T06:35:53;6.85;;;3.00;;
63699;SDS011;49845;47.130;142.766;2023-10-08T06:41:09;6.88;;;2.80;;
63699;SDS011;49845;47.130;142.766;2023-10-08T06:46:42;5.60;;;3.00;;
63699;SDS011;49845;47.130;142.766;2023-10-08T06:49:13;4.90;;;3.50;;
63699;SDS011;49845;47.130;142.766;2023-10-08T06:51:46;7.82;;;3.40;;
63699;SDS011;49845;47.130;142.766;2023-10-08T06:54:21;6.80;;;2.70;;
63699;SDS011;49845;47.130;142.766;2023-10-08T06:56:51;7.57;;;2.78;;
63699;SDS011;49845;47.130;142.766;2023-10-08T06:59:23;7.90;;;3.50;;
63699;SDS011;49845;47.130;142.766;2023-10-08T07:01:59;8.18;;;3.20;;
63699;SDS011;49845;47.130;142.766;2023-10-08T07:04:29;18.65;;;4.10;;
63699;SDS011;49845;47.130;142.766;2023-10-08T07:07:00;6.07;;;2.58;;
63699;SDS011;49845;47.130;142.766;2023-10-08T07:09:32;5.78;;;3.47;;
63699;SDS011;49845;47.130;142.766;2023-10-08T07:12:04;6.45;;;3.25;;
63699;SDS011;49845;47.130;142.766;2023-10-08T07:14:41;10.15;;;3.25;;
63699;SDS011;49845;47.130;142.766;2023-10-08T07:17:14;8.68;;;3.40;;
63699;SDS011;49845;47.130;142.766;2023-10-08T07:19:47;12.93;;;3.88;;
63699;SDS011;49845;47.130;142.766;2023-10-08T07:22:18;10.13;;;3.10;;
63699;SDS011;49845;47.130;142.766;2023-10-08T07:24:53;5.82;;;3.22;;
63699;SDS011;49845;47.130;142.766;2023-10-08T07:27:25;8.63;;;2.40;;
63699;SDS011;49845;47.130;142.766;2023-10-08T07:29:59;8.73;;;2.97;;
63699;SDS011;49845;47.130;142.766;2023-10-08T07:32:37;8.77;;;2.90;;
63699;SDS011;49845;47.130;142.766;2023-10-08T07:35:08;6.03;;;2.50;;
63699;SDS011;49845;47.130;142.766;2023-10-08T07:37:51;7.80;;;2.88;;
63699;SDS011;49845;47.130;142.766;2023-10-08T07:40:23;7.97;;;4.93;;
63699;SDS011;49845;47.130;142.766;2023-10-08T07:42:58;13.63;;;5.60;;
63699;SDS011;49845;47.130;142.766;2023-10-08T07:45:36;10.05;;;4.80;;
63699;SDS011;49845;47.130;142.766;2023-10-08T07:48:06;9.50;;;3.53;;
63699;SDS011;49845;47.130;142.766;2023-10-08T07:50:40;6.43;;;2.70;;
63699;SDS011;49845;47.130;142.766;2023-10-08T07:53:13;7.78;;;3.00;;
63699;SDS011;49845;47.130;142.766;2023-10-08T07:55:48;9.02;;;3.22;;
63699;SDS011;49845;47.130;142.766;2023-10-08T07:58:18;10.60;;;4.18;;
63699;SDS011;49845;47.130;142.766;2023-10-08T08:00:49;8.32;;;4.75;;
63699;SDS011;49845;47.130;142.766;2023-10-08T08:03:23;10.73;;;4.03;;
63699;SDS011;49845;47.130;142.766;2023-10-08T08:05:54;17.05;;;7.20;;
63699;SDS011;49845;47.130;142.766;2023-10-08T08:08:26;16.63;;;8.85;;
63699;SDS011;49845;47.130;142.766;2023-10-08T08:10:58;10.52;;;5.95;;
63699;SDS011;49845;47.130;142.766;2023-10-08T08:13:33;9.75;;;5.53;;
63699;SDS011;49845;47.130;142.766;2023-10-08T08:16:04;9.23;;;5.40;;
63699;SDS011;49845;47.130;142.766;2023-10-08T08:18:48;9.02;;;4.22;;
63699;SDS011;49845;47.130;142.766;2023-10-08T08:21:24;22.00;;;8.13;;
63699;SDS011;49845;47.130;142.766;2023-10-08T08:23:58;17.08;;;6.38;;
63699;SDS011;49845;47.130;142.766;2023-10-08T08:26:34;43.63;;;18.35;;
63699;SDS011;49845;47.130;142.766;2023-10-08T08:29:18;24.33;;;12.55;;
63699;SDS011;49845;47.130;142.766;2023-10-08T08:31:49;12.60;;;6.00;;
63699;SDS011;49845;47.130;142.766;2023-10-08T08:34:21;11.65;;;4.40;;
63699;SDS011;49845;47.130;142.766;2023-10-08T08:36:51;18.95;;;9.27;;
63699;SDS011;49845;47.130;142.766;2023-10-08T08:39:22;17.42;;;11.30;;
63699;SDS011;49845;47.130;142.766;2023-10-08T08:42:01;13.20;;;9.73;;
63699;SDS011;49845;47.130;142.766;2023-10-08T08:44:35;10.45;;;7.00;;
63699;SDS011;49845;47.130;142.766;2023-10-08T08:49:46;26.50;;;18.40;;
63699;SDS011;49845;47.130;142.766;2023-10-08T08:52:18;11.63;;;4.72;;
63699;SDS011;49845;47.130;142.766;2023-10-08T08:54:49;7.38;;;3.28;;
63699;SDS011;49845;47.130;142.766;2023-10-08T08:57:21;5.32;;;2.90;;
63699;SDS011;49845;47.130;142.766;2023-10-08T08:59:52;10.05;;;4.72;;
63699;SDS011;49845;47.130;142.766;2023-10-08T09:02:24;6.00;;;2.83;;
63699;SDS011;49845;47.130;142.766;2023-10-08T09:04:55;6.90;;;3.05;;
63699;SDS011;49845;47.130;142.766;2023-10-08T09:07:27;6.95;;;2.58;;
63699;SDS011;49845;47.130;142.766;2023-10-08T09:09:58;9.15;;;3.95;;
63699;SDS011;49845;47.130;142.766;2023-10-08T09:12:31;9.07;;;3.60;;
63699;SDS011;49845;47.130;142.766;2023-10-08T09:15:02;5.07;;;2.80;;
63699;SDS011;49845;47.130;142.766;2023-10-08T09:17:39;3.58;;;2.30;;
63699;SDS011;49845;47.130;142.766;2023-10-08T09:20:10;8.20;;;3.88;;
63699;SDS011;49845;47.130;142.766;2023-10-08T09:22:40;5.75;;;2.33;;
63699;SDS011;49845;47.130;142.766;2023-10-08T09:25:11;7.20;;;3.13;;
63699;SDS011;49845;47.130;142.766;2023-10-08T09:27:43;4.03;;;2.55;;
63699;SDS011;49845;47.130;142.766;2023-10-08T09:30:14;8.10;;;2.58;;
63699;SDS011;49845;47.130;142.766;2023-10-08T09:32:47;7.10;;;3.25;;
63699;SDS011;49845;47.130;142.766;2023-10-08T09:35:22;7.88;;;3.13;;
63699;SDS011;49845;47.130;142.766;2023-10-08T09:37:56;6.53;;;2.55;;
63699;SDS011;49845;47.130;142.766;2023-10-08T09:40:27;12.57;;;6.45;;
63699;SDS011;49845;47.130;142.766;2023-10-08T09:42:59;15.50;;;9.00;;
63699;SDS011;49845;47.130;142.766;2023-10-08T09:45:32;6.35;;;2.95;;
63699;SDS011;49845;47.130;142.766;2023-10-08T09:48:05;6.30;;;2.80;;
63699;SDS011;49845;47.130;142.766;2023-10-08T09:50:41;7.00;;;4.03;;
63699;SDS011;49845;47.130;142.766;2023-10-08T09:53:12;10.82;;;4.57;;
63699;SDS011;49845;47.130;142.766;2023-10-08T09:55:49;16.00;;;8.57;;
63699;SDS011;49845;47.130;142.766;2023-10-08T09:58:25;7.40;;;3.00;;
63699;SDS011;49845;47.130;142.766;2023-10-08T10:00:56;9.27;;;4.03;;
63699;SDS011;49845;47.130;142.766;2023-10-08T10:03:28;9.10;;;4.70;;
63699;SDS011;49845;47.130;142.766;2023-10-08T10:06:02;9.23;;;6.70;;
63699;SDS011;49845;47.130;142.766;2023-10-08T10:08:37;6.38;;;4.28;;
63699;SDS011;49845;47.130;142.766;2023-10-08T10:11:07;12.30;;;4.95;;
63699;SDS011;49845;47.130;142.766;2023-10-08T10:13:41;8.00;;;4.40;;
63699;SDS011;49845;47.130;142.766;2023-10-08T10:16:17;10.15;;;4.13;;
63699;SDS011;49845;47.130;142.766;2023-10-08T10:18:49;10.82;;;4.47;;
63699;SDS011;49845;47.130;142.766;2023-10-08T10:21:26;10.52;;;3.97;;
63699;SDS011;49845;47.130;142.766;2023-10-08T10:23:59;9.45;;;3.80;;
63699;SDS011;49845;47.130;142.766;2023-10-08T10:26:33;7.60;;;4.05;;
63699;SDS011;49845;47.130;142.766;2023-10-08T10:29:21;11.48;;;4.72;;
63699;SDS011;49845;47.130;142.766;2023-10-08T10:31:54;14.77;;;6.07;;
63699;SDS011;49845;47.130;142.766;2023-10-08T10:34:26;12.30;;;6.53;;
63699;SDS011;49845;47.130;142.766;2023-10-08T10:36:58;10.65;;;5.57;;
63699;SDS011;49845;47.130;142.766;2023-10-08T10:39:36;13.05;;;6.30;;
63699;SDS011;49845;47.130;142.766;2023-10-08T10:42:09;12.18;;;5.80;;
63699;SDS011;49845;47.130;142.766;2023-10-08T10:44:49;19.52;;;6.30;;
63699;SDS011;49845;47.130;142.766;2023-10-08T10:47:23;21.40;;;6.88;;
63699;SDS011;49845;47.130;142.766;2023-10-08T10:49:55;10.77;;;6.13;;
63699;SDS011;49845;47.130;142.766;2023-10-08T10:52:38;16.55;;;6.53;;
63699;SDS011;49845;47.130;142.766;2023-10-08T10:55:19;16.55;;;5.60;;
63699;SDS011;49845;47.130;142.766;2023-10-08T10:57:50;12.80;;;6.00;;
63699;SDS011;49845;47.130;142.766;2023-10-08T11:00:26;19.75;;;6.22;;
63699;SDS011;49845;47.130;142.766;2023-10-08T11:03:13;13.82;;;6.20;;
63699;SDS011;49845;47.130;142.766;2023-10-08T11:05:52;12.68;;;6.60;;
63699;SDS011;49845;47.130;142.766;2023-10-08T11:08:27;12.18;;;5.45;;
63699;SDS011;49845;47.130;142.766;2023-10-08T11:11:02;12.68;;;6.15;;
63699;SDS011;49845;47.130;142.766;2023-10-08T11:13:37;21.80;;;6.82;;
63699;SDS011;49845;47.130;142.766;2023-10-08T11:16:11;16.52;;;5.93;;
63699;SDS011;49845;47.130;142.766;2023-10-08T11:18:43;8.95;;;4.75;;
63699;SDS011;49845;47.130;142.766;2023-10-08T11:21:17;8.27;;;4.57;;
63699;SDS011;49845;47.130;142.766;2023-10-08T11:23:52;11.75;;;5.32;;
63699;SDS011;49845;47.130;142.766;2023-10-08T11:26:23;11.07;;;4.57;;
63699;SDS011;49845;47.130;142.766;2023-10-08T11:29:06;8.43;;;4.88;;
63699;SDS011;49845;47.130;142.766;2023-10-08T11:31:44;9.60;;;4.95;;
63699;SDS011;49845;47.130;142.766;2023-10-08T11:34:15;14.23;;;5.47;;
63699;SDS011;49845;47.130;142.766;2023-10-08T11:36:52;14.82;;;5.00;;
63699;SDS011;49845;47.130;142.766;2023-10-08T11:39:23;16.77;;;7.43;;
63699;SDS011;49845;47.130;142.766;2023-10-08T11:41:58;14.38;;;6.82;;
63699;SDS011;49845;47.130;142.766;2023-10-08T11:44:34;13.60;;;6.28;;
63699;SDS011;49845;47.130;142.766;2023-10-08T11:47:06;13.60;;;6.15;;
63699;SDS011;49845;47.130;142.766;2023-10-08T11:49:49;23.60;;;7.60;;
63699;SDS011;49845;47.130;142.766;2023-10-08T11:52:28;16.42;;;7.15;;
63699;SDS011;49845;47.130;142.766;2023-10-08T11:54:59;21.85;;;10.73;;
63699;SDS011;49845;47.130;142.766;2023-10-08T11:57:33;18.05;;;9.93;;
63699;SDS011;49845;47.130;142.766;2023-10-08T12:00:13;20.00;;;10.20;;
63699;SDS011;49845;47.130;142.766;2023-10-08T12:02:52;22.90;;;10.60;;
63699;SDS011;49845;47.130;142.766;2023-10-08T12:05:23;18.15;;;10.50;;
63699;SDS011;49845;47.130;142.766;2023-10-08T12:07:57;19.33;;;9.88;;
63699;SDS011;49845;47.130;142.766;2023-10-08T12:10:27;19.73;;;8.65;;
63699;SDS011;49845;47.130;142.766;2023-10-08T12:13:02;16.10;;;10.25;;
63699;SDS011;49845;47.130;142.766;2023-10-08T12:15:33;15.15;;;8.15;;
63699;SDS011;49845;47.130;142.766;2023-10-08T12:18:07;21.83;;;8.68;;
63699;SDS011;49845;47.130;142.766;2023-10-08T12:20:43;21.73;;;8.07;;
63699;SDS011;49845;47.130;142.766;2023-10-08T12:23:15;13.23;;;7.50;;
63699;SDS011;49845;47.130;142.766;2023-10-08T12:25:52;14.27;;;7.60;;
63699;SDS011;49845;47.130;142.766;2023-10-08T12:28:23;15.57;;;7.28;;
63699;SDS011;49845;47.130;142.766;2023-10-08T12:30:55;13.30;;;7.38;;
63699;SDS011;49845;47.130;142.766;2023-10-08T12:33:27;12.02;;;6.93;;
63699;SDS011;49845;47.130;142.766;2023-10-08T12:35:59;11.25;;;6.70;;
63699;SDS011;49845;47.130;142.766;2023-10-08T12:38:39;10.98;;;5.97;;
63699;SDS011;49845;47.130;142.766;2023-10-08T12:41:11;14.25;;;6.68;;
63699;SDS011;49845;47.130;142.766;2023-10-08T12:43:42;21.40;;;6.63;;
63699;SDS011;49845;47.130;142.766;2023-10-08T12:46:14;18.83;;;8.15;;
63699;SDS011;49845;47.130;142.766;2023-10-08T12:48:53;21.35;;;9.27;;
63699;SDS011;49845;47.130;142.766;2023-10-08T12:51:24;20.15;;;9.32;;
63699;SDS011;49845;47.130;142.766;2023-10-08T12:53:59;15.88;;;6.30;;
63699;SDS011;49845;47.130;142.766;2023-10-08T12:56:34;14.68;;;5.32;;
63699;SDS011;49845;47.130;142.766;2023-10-08T12:59:07;17.67;;;7.00;;
63699;SDS011;49845;47.130;142.766;2023-10-08T13:01:48;15.18;;;6.97;;
63699;SDS011;49845;47.130;142.766;2023-10-08T13:04:24;21.00;;;7.15;;
63699;SDS011;49845;47.130;142.766;2023-10-08T13:06:56;18.23;;;7.93;;
63699;SDS011;49845;47.130;142.766;2023-10-08T13:09:30;17.92;;;7.97;;
63699;SDS011;49845;47.130;142.766;2023-10-08T13:12:04;22.17;;;8.10;;
63699;SDS011;49845;47.130;142.766;2023-10-08T13:14:37;18.58;;;8.50;;
63699;SDS011;49845;47.130;142.766;2023-10-08T13:17:08;16.17;;;7.90;;
63699;SDS011;49845;47.130;142.766;2023-10-08T13:19:40;18.88;;;8.13;;
63699;SDS011;49845;47.130;142.766;2023-10-08T13:22:13;18.65;;;7.05;;
63699;SDS011;49845;47.130;142.766;2023-10-08T13:24:47;15.93;;;6.55;;
63699;SDS011;49845;47.130;142.766;2023-10-08T13:27:18;15.43;;;6.18;;
63699;SDS011;49845;47.130;142.766;2023-10-08T13:29:48;15.57;;;6.68;;
63699;SDS011;49845;47.130;142.766;2023-10-08T13:32:19;15.18;;;6.50;;
63699;SDS011;49845;47.130;142.766;2023-10-08T13:34:52;14.95;;;6.70;;
63699;SDS011;49845;47.130;142.766;2023-10-08T13:37:23;12.02;;;5.93;;
63699;SDS011;49845;47.130;142.766;2023-10-08T13:39:53;10.45;;;5.18;;
63699;SDS011;49845;47.130;142.766;2023-10-08T13:42:24;13.05;;;5.00;;
63699;SDS011;49845;47.130;142.766;2023-10-08T13:44:54;9.35;;;5.13;;
63699;SDS011;49845;47.130;142.766;2023-10-08T13:47:27;11.75;;;4.90;;
63699;SDS011;49845;47.130;142.766;2023-10-08T13:50:03;8.73;;;4.43;;
63699;SDS011;49845;47.130;142.766;2023-10-08T13:52:37;12.02;;;4.30;;
63699;SDS011;49845;47.130;142.766;2023-10-08T13:55:08;11.68;;;5.28;;
63699;SDS011;49845;47.130;142.766;2023-10-08T13:57:41;11.10;;;5.15;;
63699;SDS011;49845;47.130;142.766;2023-10-08T14:00:12;7.65;;;4.43;;
63699;SDS011;49845;47.130;142.766;2023-10-08T14:02:48;14.70;;;6.25;;
63699;SDS011;49845;47.130;142.766;2023-10-08T14:05:21;10.30;;;5.32;;
63699;SDS011;49845;47.130;142.766;2023-10-08T14:07:52;13.32;;;5.40;;
63699;SDS011;49845;47.130;142.766;2023-10-08T14:10:24;13.50;;;5.65;;
63699;SDS011;49845;47.130;142.766;2023-10-08T14:12:57;9.70;;;5.20;;
63699;SDS011;49845;47.130;142.766;2023-10-08T14:15:29;10.00;;;5.22;;
63699;SDS011;49845;47.130;142.766;2023-10-08T14:18:01;9.88;;;5.40;;
63699;SDS011;49845;47.130;142.766;2023-10-08T14:20:37;9.90;;;4.88;;
63699;SDS011;49845;47.130;142.766;2023-10-08T14:23:08;11.98;;;4.93;;
63699;SDS011;49845;47.130;142.766;2023-10-08T14:25:39;7.90;;;4.63;;
63699;SDS011;49845;47.130;142.766;2023-10-08T14:28:12;8.88;;;4.78;;
63699;SDS011;49845;47.130;142.766;2023-10-08T14:30:50;6.82;;;4.07;;
63699;SDS011;49845;47.130;142.766;2023-10-08T14:33:23;10.95;;;4.80;;
63699;SDS011;49845;47.130;142.766;2023-10-08T14:35:59;8.93;;;3.88;;
63699;SDS011;49845;47.130;142.766;2023-10-08T14:38:46;6.35;;;3.90;;
63699;SDS011;49845;47.130;142.766;2023-10-08T14:41:34;9.70;;;3.45;;
63699;SDS011;49845;47.130;142.766;2023-10-08T14:44:21;9.10;;;4.63;;
63699;SDS011;49845;47.130;142.766;2023-10-08T14:46:52;13.15;;;4.63;;
63699;SDS011;49845;47.130;142.766;2023-10-08T14:49:24;9.65;;;4.35;;
63699;SDS011;49845;47.130;142.766;2023-10-08T14:51:56;10.95;;;5.20;;
63699;SDS011;49845;47.130;142.766;2023-10-08T14:54:27;10.00;;;4.88;;
63699;SDS011;49845;47.130;142.766;2023-10-08T14:56:58;9.80;;;5.25;;
63699;SDS011;49845;47.130;142.766;2023-10-08T14:59:30;11.40;;;5.80;;
63699;SDS011;49845;47.130;142.766;2023-10-08T15:02:01;11.40;;;5.30;;
63699;SDS011;49845;47.130;142.766;2023-10-08T15:04:31;12.73;;;5.60;;
63699;SDS011;49845;47.130;142.766;2023-10-08T15:07:08;9.80;;;5.22;;
63699;SDS011;49845;47.130;142.766;2023-10-08T15:09:39;11.80;;;5.57;;